Time;durP1;ratioP1;P1;durP2;ratioP2;P2;SDS_P1;SDS_P2;PMS_P1;PMS_P2;Temp;Humidity;BMP_temperature;BMP_pressure;BME280_temperature;BME280_humidity;BME280_pressure;Samples;Min_cycle;Max_cycle;Signal;HPM_P1;HPM_P2
2023/02/07 00:00:16;;;;;;;36.50;18.00;;;;;;;;;;5069465;28;20217;-43
2023/02/07 00:02:46;;;;;;;54.13;18.75;;;;;;;;;;5066173;28;20787;-44
2023/02/07 00:05:13;;;;;;;56.60;19.73;;;;;;;;;;5065414;28;20178;-43
2023/02/07 00:07:38;;;;;;;69.43;16.90;;;;;;;;;;5066163;28;20190;-43
2023/02/07 00:10:06;;;;;;;37.23;18.33;;;;;;;;;;5065946;28;20648;-44
2023/02/07 00:12:32;;;;;;;36.55;17.95;;;;;;;;;;5065950;28;20409;-43
2023/02/07 00:14:58;;;;;;;44.53;19.25;;;;;;;;;;5067620;28;20250;-44
2023/02/07 00:17:24;;;;;;;48.40;21.08;;;;;;;;;;5070269;28;20263;-44
2023/02/07 00:19:50;;;;;;;36.80;19.02;;;;;;;;;;5066817;28;20178;-43
2023/02/07 00:22:16;;;;;;;56.60;23.40;;;;;;;;;;5066160;28;20232;-44
2023/02/07 00:24:42;;;;;;;51.17;20.93;;;;;;;;;;5065104;28;20586;-43
2023/02/07 00:27:08;;;;;;;41.70;18.17;;;;;;;;;;5065494;28;20420;-44
2023/02/07 00:29:34;;;;;;;48.25;20.17;;;;;;;;;;5065572;28;20408;-43
2023/02/07 00:32:00;;;;;;;44.00;21.50;;;;;;;;;;5067735;28;20183;-43
2023/02/07 00:34:26;;;;;;;47.15;18.33;;;;;;;;;;5069364;28;20414;-43
2023/02/07 00:36:53;;;;;;;61.77;20.40;;;;;;;;;;5068471;28;20210;-43
2023/02/07 00:39:19;;;;;;;45.80;19.90;;;;;;;;;;5070012;28;20424;-44
2023/02/07 00:41:45;;;;;;;48.28;20.23;;;;;;;;;;5065782;28;20660;-44
2023/02/07 00:44:11;;;;;;;48.83;22.10;;;;;;;;;;5064536;28;20185;-43
2023/02/07 00:46:37;;;;;;;47.67;21.90;;;;;;;;;;5065108;28;20189;-43
2023/02/07 00:49:03;;;;;;;40.00;17.13;;;;;;;;;;5067025;28;20321;-43
2023/02/07 00:51:29;;;;;;;39.83;19.50;;;;;;;;;;5063622;28;20187;-43
2023/02/07 00:53:56;;;;;;;43.20;20.02;;;;;;;;;;5067286;28;20179;-44
2023/02/07 00:56:22;;;;;;;41.35;19.63;;;;;;;;;;5069531;28;20288;-43
2023/02/07 00:58:48;;;;;;;37.10;18.70;;;;;;;;;;5065969;28;20179;-43
2023/02/07 01:01:14;;;;;;;51.97;21.57;;;;;;;;;;5064845;28;20181;-44
2023/02/07 01:03:40;;;;;;;45.17;21.50;;;;;;;;;;5063618;28;20904;-44
2023/02/07 01:06:07;;;;;;;50.10;21.80;;;;;;;;;;5064725;28;20424;-43
2023/02/07 01:08:33;;;;;;;33.90;18.15;;;;;;;;;;5064904;28;20194;-43
2023/02/07 01:11:01;;;;;;;37.75;17.70;;;;;;;;;;5067118;28;20263;-43
2023/02/07 01:13:27;;;;;;;46.92;19.50;;;;;;;;;;5069458;28;20228;-44
2023/02/07 01:15:53;;;;;;;42.28;19.45;;;;;;;;;;5065593;28;20201;-44
2023/02/07 01:18:19;;;;;;;43.37;19.53;;;;;;;;;;5063987;28;20293;-44
2023/02/07 01:20:45;;;;;;;47.83;21.23;;;;;;;;;;5065043;28;20400;-43
2023/02/07 01:23:12;;;;;;;48.97;20.52;;;;;;;;;;5064688;28;20755;-43
2023/02/07 01:25:39;;;;;;;39.53;20.52;;;;;;;;;;5063825;28;20176;-43
2023/02/07 01:28:05;;;;;;;43.70;18.38;;;;;;;;;;5060979;28;20201;-43
2023/02/07 01:30:31;;;;;;;40.08;18.40;;;;;;;;;;5069122;28;20540;-43
2023/02/07 01:32:57;;;;;;;46.20;18.70;;;;;;;;;;5060845;28;20171;-44
2023/02/07 01:35:24;;;;;;;37.63;19.08;;;;;;;;;;5060881;28;20894;-44
2023/02/07 01:37:49;;;;;;;37.67;17.70;;;;;;;;;;5067886;28;20201;-43
2023/02/07 01:40:16;;;;;;;43.37;20.13;;;;;;;;;;5064213;28;20174;-43
2023/02/07 01:42:42;;;;;;;47.45;18.73;;;;;;;;;;5062779;28;20833;-44
2023/02/07 01:45:08;;;;;;;41.00;18.38;;;;;;;;;;5064819;28;20245;-43
2023/02/07 01:47:35;;;;;;;38.63;18.83;;;;;;;;;;5062920;28;20202;-43
2023/02/07 01:50:01;;;;;;;45.85;19.55;;;;;;;;;;5066151;28;20213;-43
2023/02/07 01:52:30;;;;;;;46.40;21.08;;;;;;;;;;5068708;28;20535;-43
2023/02/07 01:54:58;;;;;;;48.60;21.00;;;;;;;;;;5065253;28;20257;-43
2023/02/07 01:57:25;;;;;;;36.65;19.52;;;;;;;;;;5063600;28;20574;-44
2023/02/07 01:59:52;;;;;;;41.42;19.27;;;;;;;;;;5063788;28;20664;-43
2023/02/07 02:02:20;;;;;;;44.08;17.77;;;;;;;;;;5062856;28;20166;-44
2023/02/07 02:04:48;;;;;;;40.17;17.88;;;;;;;;;;5062513;28;20163;-43
2023/02/07 02:07:15;;;;;;;36.75;18.80;;;;;;;;;;5070502;28;20182;-43
2023/02/07 02:09:41;;;;;;;42.33;18.10;;;;;;;;;;5071578;28;20182;-44
2023/02/07 02:12:10;;;;;;;42.17;18.63;;;;;;;;;;5072209;28;20755;-43
2023/02/07 02:15:14;;;;;;;34.42;18.38;;;;;;;;;;5071138;28;20404;-43
2023/02/07 02:17:58;;;;;;;33.25;16.60;;;;;;;;;;4990234;28;20220;-43
2023/02/07 02:20:46;;;;;;;46.55;19.45;;;;;;;;;;4990553;28;20591;-43
2023/02/07 02:23:29;;;;;;;55.58;19.63;;;;;;;;;;5050793;28;20195;-43
2023/02/07 02:26:19;;;;;;;56.70;21.27;;;;;;;;;;5071381;28;20168;-43
2023/02/07 02:28:54;;;;;;;47.88;19.95;;;;;;;;;;5071962;28;20191;-43
2023/02/07 02:31:35;;;;;;;45.22;20.52;;;;;;;;;;5071762;28;20245;-43
2023/02/07 02:34:08;;;;;;;53.67;20.58;;;;;;;;;;5071124;28;20236;-43
2023/02/07 02:37:03;;;;;;;50.10;21.73;;;;;;;;;;5071352;28;20252;-43
2023/02/07 02:39:42;;;;;;;40.53;20.25;;;;;;;;;;5054466;28;20178;-43
2023/02/07 02:42:16;;;;;;;43.67;20.30;;;;;;;;;;5071843;28;20162;-43
2023/02/07 02:45:08;;;;;;;56.70;22.67;;;;;;;;;;5071349;28;20536;-43
2023/02/07 02:47:35;;;;;;;39.55;20.38;;;;;;;;;;5068023;28;20198;-44
2023/02/07 02:50:02;;;;;;;45.42;22.40;;;;;;;;;;5069264;28;20273;-43
2023/02/07 02:52:28;;;;;;;49.22;22.25;;;;;;;;;;5060445;28;20528;-43
2023/02/07 02:54:54;;;;;;;40.88;21.17;;;;;;;;;;5062532;28;20177;-44
2023/02/07 02:57:23;;;;;;;50.47;19.63;;;;;;;;;;5064182;28;20435;-43
2023/02/07 03:00:01;;;;;;;44.17;20.30;;;;;;;;;;5061781;28;20410;-44
2023/02/07 03:02:34;;;;;;;42.42;20.70;;;;;;;;;;5059372;28;20174;-44
2023/02/07 03:05:24;;;;;;;40.88;20.02;;;;;;;;;;5064026;28;20209;-43
2023/02/07 03:08:09;;;;;;;31.73;17.20;;;;;;;;;;5062779;28;20213;-43
2023/02/07 03:10:47;;;;;;;42.35;19.70;;;;;;;;;;5067656;28;20181;-44
2023/02/07 03:13:23;;;;;;;46.50;20.23;;;;;;;;;;5067245;28;20606;-43
2023/02/07 03:15:49;;;;;;;45.35;20.15;;;;;;;;;;5063278;28;20661;-43
2023/02/07 03:18:17;;;;;;;36.57;19.63;;;;;;;;;;5062676;28;20221;-44
2023/02/07 03:20:45;;;;;;;37.97;20.15;;;;;;;;;;5061813;28;20455;-44
2023/02/07 03:23:13;;;;;;;44.70;15.88;;;;;;;;;;5063508;28;20175;-43
2023/02/07 03:25:40;;;;;;;33.00;16.83;;;;;;;;;;5063211;28;20709;-44
2023/02/07 03:28:08;;;;;;;49.78;20.70;;;;;;;;;;5068082;28;20187;-43
2023/02/07 03:30:35;;;;;;;42.83;19.02;;;;;;;;;;5071319;28;20557;-44
2023/02/07 03:33:08;;;;;;;43.65;20.15;;;;;;;;;;5069383;28;20189;-43
2023/02/07 03:35:37;;;;;;;36.60;19.10;;;;;;;;;;5065698;28;20570;-43
2023/02/07 03:38:04;;;;;;;50.92;19.65;;;;;;;;;;5066698;28;20673;-43
2023/02/07 03:40:32;;;;;;;34.83;19.15;;;;;;;;;;5066402;28;20220;-44
2023/02/07 03:43:17;;;;;;;44.53;17.85;;;;;;;;;;5066269;28;20166;-43
2023/02/07 03:45:43;;;;;;;36.67;18.42;;;;;;;;;;5058320;28;20522;-43
2023/02/07 03:48:09;;;;;;;43.38;18.85;;;;;;;;;;5067242;28;20197;-43
2023/02/07 03:50:35;;;;;;;28.87;16.37;;;;;;;;;;5070920;28;20257;-43
2023/02/07 03:53:01;;;;;;;50.65;18.90;;;;;;;;;;5062850;28;20417;-43
2023/02/07 03:55:27;;;;;;;37.95;18.40;;;;;;;;;;5070022;28;20178;-43
2023/02/07 03:57:53;;;;;;;37.78;18.70;;;;;;;;;;5067830;28;20197;-43
2023/02/07 04:00:19;;;;;;;30.88;15.95;;;;;;;;;;5066059;28;20182;-44
2023/02/07 04:02:45;;;;;;;36.72;17.13;;;;;;;;;;5066500;28;20269;-43
2023/02/07 04:05:11;;;;;;;38.97;17.67;;;;;;;;;;5066372;28;20242;-43
2023/02/07 04:07:37;;;;;;;44.87;16.83;;;;;;;;;;5065440;28;20315;-44
2023/02/07 04:10:07;;;;;;;33.27;15.77;;;;;;;;;;5067548;28;20405;-43
2023/02/07 04:12:33;;;;;;;45.33;17.25;;;;;;;;;;5070658;28;20987;-43
2023/02/07 04:14:59;;;;;;;28.85;14.60;;;;;;;;;;5067572;28;20245;-44
2023/02/07 04:17:25;;;;;;;38.35;16.20;;;;;;;;;;5066082;28;20693;-45
2023/02/07 04:19:51;;;;;;;33.67;14.45;;;;;;;;;;5065796;28;20170;-45
2023/02/07 04:22:17;;;;;;;32.83;15.90;;;;;;;;;;5065704;28;20170;-45
2023/02/07 04:24:43;;;;;;;36.27;16.10;;;;;;;;;;5064852;28;20791;-44
2023/02/07 04:27:09;;;;;;;35.37;16.50;;;;;;;;;;5066644;28;21015;-45
2023/02/07 04:29:35;;;;;;;32.00;16.77;;;;;;;;;;5070297;28;20417;-47
2023/02/07 04:32:02;;;;;;;37.17;16.23;;;;;;;;;;5068270;28;20412;-48
2023/02/07 04:34:28;;;;;;;32.67;16.40;;;;;;;;;;5064613;28;20524;-44
2023/02/07 04:36:54;;;;;;;27.77;14.57;;;;;;;;;;5065662;28;20363;-46
2023/02/07 04:39:20;;;;;;;27.87;13.80;;;;;;;;;;5065272;28;20413;-46
2023/02/07 04:41:46;;;;;;;32.33;15.57;;;;;;;;;;5065326;28;20404;-47
2023/02/07 04:44:12;;;;;;;29.10;17.20;;;;;;;;;;5065159;28;20174;-46
2023/02/07 04:46:38;;;;;;;29.35;15.35;;;;;;;;;;5069882;28;20418;-46
2023/02/07 04:49:04;;;;;;;34.00;16.63;;;;;;;;;;5068335;28;20277;-47
2023/02/07 04:51:31;;;;;;;25.92;14.48;;;;;;;;;;5065205;28;20181;-47
2023/02/07 04:53:57;;;;;;;25.55;16.05;;;;;;;;;;5071711;28;20194;-45
2023/02/07 04:56:23;;;;;;;28.15;13.75;;;;;;;;;;5073369;28;20684;-46
2023/02/07 04:58:49;;;;;;;27.90;15.88;;;;;;;;;;5073638;28;20181;-46
2023/02/07 05:01:15;;;;;;;26.20;14.80;;;;;;;;;;5073444;28;20253;-46
2023/02/07 05:03:41;;;;;;;29.83;15.73;;;;;;;;;;5072744;28;20405;-46
2023/02/07 05:06:07;;;;;;;39.50;14.93;;;;;;;;;;5073313;28;20249;-47
2023/02/07 05:08:33;;;;;;;44.15;17.35;;;;;;;;;;5073094;28;20431;-46
2023/02/07 05:11:00;;;;;;;23.75;12.75;;;;;;;;;;5073309;28;20194;-45
2023/02/07 05:13:26;;;;;;;28.73;13.15;;;;;;;;;;5073192;28;20249;-46
2023/02/07 05:15:52;;;;;;;27.07;13.50;;;;;;;;;;5072506;28;20269;-47
2023/02/07 05:18:18;;;;;;;26.27;14.10;;;;;;;;;;5072929;28;20456;-45
2023/02/07 05:20:44;;;;;;;26.05;14.75;;;;;;;;;;5073147;28;20212;-46
2023/02/07 05:23:10;;;;;;;31.85;14.60;;;;;;;;;;5072858;28;20538;-46
2023/02/07 05:25:36;;;;;;;27.13;13.95;;;;;;;;;;5072235;28;20220;-45
2023/02/07 05:28:02;;;;;;;33.33;14.77;;;;;;;;;;5072945;28;20331;-45
2023/02/07 05:30:28;;;;;;;26.85;13.60;;;;;;;;;;5071647;28;20230;-46
2023/02/07 05:33:03;;;;;;;33.90;14.53;;;;;;;;;;5073195;28;20197;-45
2023/02/07 05:35:37;;;;;;;25.50;13.45;;;;;;;;;;5071919;28;20408;-44
2023/02/07 05:38:05;;;;;;;24.95;14.93;;;;;;;;;;5072665;28;20694;-45
2023/02/07 05:40:31;;;;;;;22.23;12.05;;;;;;;;;;5072667;28;20169;-45
2023/02/07 05:42:57;;;;;;;22.25;11.48;;;;;;;;;;5072621;28;20174;-46
2023/02/07 05:45:23;;;;;;;18.73;12.43;;;;;;;;;;5071949;28;20302;-45
2023/02/07 05:47:49;;;;;;;22.57;11.63;;;;;;;;;;5072273;28;20236;-48
2023/02/07 05:50:15;;;;;;;26.97;13.63;;;;;;;;;;5072393;28;20451;-46
2023/02/07 05:52:41;;;;;;;25.08;14.75;;;;;;;;;;5059491;28;20789;-45
2023/02/07 05:55:08;;;;;;;23.17;14.02;;;;;;;;;;5051778;28;20217;-45
2023/02/07 05:57:34;;;;;;;24.70;13.45;;;;;;;;;;5052297;28;20748;-47
2023/02/07 06:00:00;;;;;;;25.58;13.73;;;;;;;;;;5052648;28;20567;-46
2023/02/07 06:02:26;;;;;;;30.52;13.85;;;;;;;;;;5052275;28;20159;-46
2023/02/07 06:04:52;;;;;;;22.83;12.68;;;;;;;;;;5051487;28;20620;-46
2023/02/07 06:07:18;;;;;;;23.63;12.73;;;;;;;;;;5052210;28;20193;-46
2023/02/07 06:09:44;;;;;;;24.67;12.17;;;;;;;;;;5052431;28;20170;-45
2023/02/07 06:12:10;;;;;;;22.53;12.57;;;;;;;;;;5052274;28;20416;-47
2023/02/07 06:14:35;;;;;;;29.23;15.47;;;;;;;;;;5050037;28;20447;-46
2023/02/07 06:17:01;;;;;;;28.37;14.20;;;;;;;;;;5051645;28;20518;-45
2023/02/07 06:19:27;;;;;;;23.03;13.00;;;;;;;;;;5052005;28;20712;-46
2023/02/07 06:21:53;;;;;;;25.83;15.30;;;;;;;;;;5052000;28;20397;-47
2023/02/07 06:24:21;;;;;;;26.70;13.43;;;;;;;;;;5051269;28;20408;-47
2023/02/07 06:26:47;;;;;;;31.75;14.13;;;;;;;;;;5052247;28;20475;-45
2023/02/07 06:29:13;;;;;;;24.77;13.50;;;;;;;;;;5051939;28;20594;-47
2023/02/07 06:31:39;;;;;;;29.20;14.02;;;;;;;;;;5051855;28;20194;-46
2023/02/07 06:34:05;;;;;;;24.50;12.07;;;;;;;;;;5051552;28;20209;-45
2023/02/07 06:36:31;;;;;;;22.00;12.23;;;;;;;;;;5051605;28;20453;-45
2023/02/07 06:38:58;;;;;;;28.37;12.10;;;;;;;;;;5051865;28;20531;-44
2023/02/07 06:41:24;;;;;;;23.17;12.90;;;;;;;;;;5051786;28;20489;-45
2023/02/07 06:43:50;;;;;;;26.88;12.90;;;;;;;;;;5050931;28;20217;-45
2023/02/07 06:46:16;;;;;;;23.47;14.70;;;;;;;;;;5051580;28;20179;-44
2023/02/07 06:48:42;;;;;;;25.83;14.70;;;;;;;;;;5051528;28;20433;-46
2023/02/07 06:51:08;;;;;;;19.90;12.48;;;;;;;;;;5051695;28;20402;-45
2023/02/07 06:53:34;;;;;;;29.03;14.50;;;;;;;;;;5070795;28;20182;-45
2023/02/07 06:56:00;;;;;;;24.47;12.53;;;;;;;;;;5057294;28;20456;-47
2023/02/07 06:58:26;;;;;;;21.10;13.20;;;;;;;;;;5062114;28;20444;-46
2023/02/07 07:00:51;;;;;;;19.53;12.00;;;;;;;;;;5068722;28;20417;-46
2023/02/07 07:03:17;;;;;;;25.20;11.47;;;;;;;;;;5066756;28;20421;-45
2023/02/07 07:05:44;;;;;;;25.63;12.48;;;;;;;;;;5058906;28;20415;-45
2023/02/07 07:08:10;;;;;;;29.05;14.30;;;;;;;;;;5068683;28;20562;-46
2023/02/07 07:10:37;;;;;;;23.35;12.30;;;;;;;;;;5067022;28;20661;-46
2023/02/07 07:13:03;;;;;;;23.58;13.13;;;;;;;;;;5068940;28;20179;-46
2023/02/07 07:15:29;;;;;;;23.58;13.52;;;;;;;;;;5065573;28;20186;-45
2023/02/07 07:17:55;;;;;;;30.40;14.83;;;;;;;;;;5069642;28;20202;-45
2023/02/07 07:20:21;;;;;;;19.25;11.15;;;;;;;;;;5071610;28;20421;-45
2023/02/07 07:22:48;;;;;;;23.87;12.50;;;;;;;;;;5068042;28;20193;-45
2023/02/07 07:25:14;;;;;;;23.63;12.55;;;;;;;;;;5066139;28;20454;-45
2023/02/07 07:27:39;;;;;;;22.70;12.37;;;;;;;;;;5067342;28;20205;-45
2023/02/07 07:30:08;;;;;;;23.47;11.37;;;;;;;;;;5067044;28;20496;-45
2023/02/07 07:32:34;;;;;;;26.02;14.15;;;;;;;;;;5066629;28;20492;-45
2023/02/07 07:35:00;;;;;;;26.50;13.60;;;;;;;;;;5068287;28;20274;-44
2023/02/07 07:37:26;;;;;;;25.50;12.88;;;;;;;;;;5071188;28;20474;-46
2023/02/07 07:39:52;;;;;;;30.93;13.87;;;;;;;;;;5067861;28;20611;-44
2023/02/07 07:42:18;;;;;;;25.33;13.70;;;;;;;;;;5066993;28;20983;-47
2023/02/07 07:44:43;;;;;;;19.27;12.23;;;;;;;;;;5065909;28;20483;-45
2023/02/07 07:47:09;;;;;;;32.20;13.73;;;;;;;;;;5066505;28;20237;-47
2023/02/07 07:49:35;;;;;;;22.27;13.10;;;;;;;;;;5071359;28;20408;-44
2023/02/07 07:52:01;;;;;;;21.97;12.63;;;;;;;;;;5068337;28;20412;-45
2023/02/07 07:54:29;;;;;;;22.37;13.10;;;;;;;;;;5070234;28;20459;-47
2023/02/07 07:56:55;;;;;;;24.77;13.40;;;;;;;;;;5063204;28;20468;-47
2023/02/07 07:59:20;;;;;;;28.97;15.30;;;;;;;;;;5070799;28;20178;-47
2023/02/07 08:01:46;;;;;;;21.70;14.20;;;;;;;;;;5066819;28;20926;-47
2023/02/07 08:04:12;;;;;;;23.27;12.90;;;;;;;;;;5065559;28;20741;-46
2023/02/07 08:06:38;;;;;;;22.05;12.57;;;;;;;;;;5065893;28;20396;-45
2023/02/07 08:09:04;;;;;;;22.38;13.15;;;;;;;;;;5067627;28;20171;-46
2023/02/07 08:11:30;;;;;;;22.65;12.57;;;;;;;;;;5064890;28;20189;-45
2023/02/07 08:13:56;;;;;;;33.37;14.53;;;;;;;;;;5067645;28;20622;-44
2023/02/07 08:16:22;;;;;;;23.53;13.77;;;;;;;;;;5071300;28;20491;-45
2023/02/07 08:18:48;;;;;;;19.40;13.43;;;;;;;;;;5070137;28;20429;-46
2023/02/07 08:21:14;;;;;;;22.83;12.63;;;;;;;;;;5067127;28;20921;-46
2023/02/07 08:23:40;;;;;;;15.80;11.80;;;;;;;;;;5065506;28;20787;-46
2023/02/07 08:26:06;;;;;;;25.27;13.60;;;;;;;;;;5065560;28;20407;-46
2023/02/07 08:28:32;;;;;;;16.92;10.73;;;;;;;;;;5065377;28;20270;-47
2023/02/07 08:31:00;;;;;;;23.08;12.23;;;;;;;;;;5068265;28;20586;-45
2023/02/07 08:33:26;;;;;;;16.83;11.02;;;;;;;;;;5070033;28;20577;-47
2023/02/07 08:35:52;;;;;;;17.95;11.10;;;;;;;;;;5066405;28;20194;-45
2023/02/07 08:38:18;;;;;;;17.35;9.68;;;;;;;;;;5072754;28;20199;-45
2023/02/07 08:40:45;;;;;;;17.08;10.50;;;;;;;;;;5066096;28;20174;-45
2023/02/07 08:43:12;;;;;;;16.08;10.05;;;;;;;;;;5063898;28;20222;-45
2023/02/07 08:45:39;;;;;;;18.83;9.90;;;;;;;;;;5064536;28;20699;-45
2023/02/07 08:48:05;;;;;;;16.98;11.15;;;;;;;;;;5066729;28;20678;-46
2023/02/07 08:50:31;;;;;;;16.85;10.20;;;;;;;;;;5069954;28;20209;-47
2023/02/07 08:52:57;;;;;;;14.23;9.50;;;;;;;;;;5062048;28;20646;-46
2023/02/07 08:55:23;;;;;;;13.03;8.10;;;;;;;;;;5068950;28;20413;-46
2023/02/07 08:57:49;;;;;;;15.00;7.97;;;;;;;;;;5060733;28;20436;-47
2023/02/07 09:00:15;;;;;;;13.37;8.03;;;;;;;;;;5058075;28;20546;-45
2023/02/07 09:02:42;;;;;;;15.48;8.70;;;;;;;;;;5051922;28;20400;-45
2023/02/07 09:05:08;;;;;;;11.98;8.02;;;;;;;;;;5052644;28;20244;-48
2023/02/07 09:07:34;;;;;;;15.20;8.18;;;;;;;;;;5054850;28;20202;-45
2023/02/07 09:10:01;;;;;;;15.02;8.07;;;;;;;;;;5052422;28;20572;-45
2023/02/07 09:12:27;;;;;;;11.10;7.45;;;;;;;;;;5053142;28;20634;-45
2023/02/07 09:14:53;;;;;;;11.07;8.17;;;;;;;;;;5052005;28;20296;-45
2023/02/07 09:17:19;;;;;;;11.83;8.00;;;;;;;;;;5052426;28;20477;-44
2023/02/07 09:19:45;;;;;;;10.70;7.93;;;;;;;;;;5052690;28;20413;-47
2023/02/07 09:22:11;;;;;;;9.60;6.70;;;;;;;;;;5053005;28;20502;-48
2023/02/07 09:24:37;;;;;;;10.60;7.00;;;;;;;;;;5051594;28;20470;-48
2023/02/07 09:27:03;;;;;;;10.03;6.63;;;;;;;;;;5052582;28;20420;-47
2023/02/07 09:29:29;;;;;;;9.83;7.40;;;;;;;;;;5052481;28;20754;-47
2023/02/07 09:31:55;;;;;;;10.23;6.87;;;;;;;;;;5052467;28;20397;-47
2023/02/07 09:34:21;;;;;;;9.40;6.87;;;;;;;;;;5052155;28;20415;-47
2023/02/07 09:36:48;;;;;;;12.50;7.10;;;;;;;;;;5052577;28;20464;-48
2023/02/07 09:39:15;;;;;;;10.80;6.27;;;;;;;;;;5052543;28;20778;-47
2023/02/07 09:41:41;;;;;;;11.17;6.73;;;;;;;;;;5068775;28;20506;-49
2023/02/07 09:44:31;;;;;;;5.97;5.47;;;;;;;;;;5072325;28;20408;-47
2023/02/07 09:46:57;;;;;;;5.87;5.00;;;;;;;;;;5072264;28;20392;-46
2023/02/07 09:49:41;;;;;;;10.20;7.67;;;;;;;;;;5072153;28;20409;-49
2023/02/07 09:52:12;;;;;;;7.97;7.20;;;;;;;;;;5063385;28;20413;-46
2023/02/07 09:54:39;;;;;;;6.47;5.77;;;;;;;;;;5051423;28;20399;-49
2023/02/07 09:57:08;;;;;;;8.70;8.00;;;;;;;;;;5051783;28;20820;-46
2023/02/07 09:59:41;;;;;;;7.20;5.10;;;;;;;;;;5051857;28;20383;-48
2023/02/07 10:02:15;;;;;;;5.73;5.20;;;;;;;;;;5052054;28;20397;-45
2023/02/07 10:04:43;;;;;;;5.10;4.60;;;;;;;;;;5050373;28;20397;-46
2023/02/07 10:07:12;;;;;;;4.70;4.27;;;;;;;;;;5051737;28;20872;-46
2023/02/07 10:09:39;;;;;;;7.23;4.93;;;;;;;;;;5051744;28;20420;-49
2023/02/07 10:12:08;;;;;;;6.83;4.30;;;;;;;;;;5051893;28;20863;-47
2023/02/07 10:14:41;;;;;;;8.73;4.73;;;;;;;;;;5051154;28;20375;-47
2023/02/07 10:17:26;;;;;;;5.33;4.33;;;;;;;;;;5051807;28;20472;-46
2023/02/07 10:20:10;;;;;;;5.77;5.17;;;;;;;;;;5051383;28;20394;-45
2023/02/07 10:22:39;;;;;;;4.40;4.00;;;;;;;;;;5051563;28;20496;-45
2023/02/07 10:25:17;;;;;;;5.00;4.60;;;;;;;;;;5051345;28;20838;-46
2023/02/07 10:27:50;;;;;;;3.50;3.20;;;;;;;;;;5051885;28;20855;-46
2023/02/07 10:30:16;;;;;;;3.90;3.60;;;;;;;;;;5050239;28;20390;-47
2023/02/07 10:32:42;;;;;;;4.10;3.80;;;;;;;;;;5051755;28;20417;-47
2023/02/07 10:35:36;;;;;;;3.50;3.20;;;;;;;;;;5050281;28;20413;-47
2023/02/07 10:38:02;;;;;;;4.80;4.30;;;;;;;;;;5049389;28;20438;-48
2023/02/07 10:40:32;;;;;;;4.00;3.70;;;;;;;;;;5051505;28;20738;-48
2023/02/07 10:43:03;;;;;;;4.17;3.87;;;;;;;;;;5051658;28;20386;-47
2023/02/07 10:45:29;;;;;;;5.23;3.77;;;;;;;;;;5051130;28;20402;-48
2023/02/07 10:47:56;;;;;;;4.43;4.00;;;;;;;;;;5051598;28;20410;-48
2023/02/07 10:50:23;;;;;;;3.93;3.63;;;;;;;;;;5051423;28;20368;-47
2023/02/07 10:52:50;;;;;;;4.90;4.50;;;;;;;;;;5051466;28;20782;-48
2023/02/07 10:55:18;;;;;;;6.30;4.17;;;;;;;;;;5050717;28;20356;-47
2023/02/07 10:57:51;;;;;;;4.60;4.20;;;;;;;;;;5051406;28;20506;-48
2023/02/07 11:00:23;;;;;;;4.90;4.40;;;;;;;;;;5051309;28;20379;-47
2023/02/07 11:03:09;;;;;;;4.57;4.17;;;;;;;;;;5051582;28;20386;-48
2023/02/07 11:05:37;;;;;;;4.97;4.53;;;;;;;;;;5036863;28;20524;-45
2023/02/07 11:08:03;;;;;;;5.00;4.50;;;;;;;;;;5049289;28;20406;-49
2023/02/07 11:10:33;;;;;;;4.30;3.90;;;;;;;;;;5051054;28;20759;-46
2023/02/07 11:12:59;;;;;;;4.70;4.30;;;;;;;;;;5051333;28;20375;-47
2023/02/07 11:15:31;;;;;;;7.93;3.70;;;;;;;;;;5050631;28;20402;-46
2023/02/07 11:17:57;;;;;;;5.03;4.47;;;;;;;;;;5051023;28;20503;-45
2023/02/07 11:20:28;;;;;;;5.00;4.53;;;;;;;;;;5050729;28;20406;-45
2023/02/07 11:22:54;;;;;;;4.87;4.03;;;;;;;;;;5051247;28;20484;-46
2023/02/07 11:25:27;;;;;;;6.00;5.13;;;;;;;;;;5050580;28;20833;-47
2023/02/07 11:27:53;;;;;;;5.23;4.67;;;;;;;;;;5051022;28;20513;-47
2023/02/07 11:30:21;;;;;;;5.10;4.70;;;;;;;;;;5050818;28;20411;-44
2023/02/07 11:32:58;;;;;;;5.33;4.83;;;;;;;;;;5050942;28;20388;-49
2023/02/07 11:35:24;;;;;;;4.70;4.30;;;;;;;;;;5050248;28;20762;-48
2023/02/07 11:38:01;;;;;;;5.10;4.37;;;;;;;;;;5050947;28;20433;-47
2023/02/07 11:40:29;;;;;;;4.67;4.17;;;;;;;;;;5050649;28;20384;-47
2023/02/07 11:43:15;;;;;;;5.27;4.27;;;;;;;;;;5050835;28;20472;-45
2023/02/07 11:45:47;;;;;;;4.20;3.90;;;;;;;;;;5052440;28;20392;-47
2023/02/07 11:48:26;;;;;;;4.67;4.27;;;;;;;;;;5063136;28;20522;-45
2023/02/07 11:50:53;;;;;;;6.43;4.50;;;;;;;;;;5061215;28;20406;-48
2023/02/07 11:53:25;;;;;;;5.17;4.77;;;;;;;;;;5062483;28;20461;-47
2023/02/07 11:55:53;;;;;;;4.93;4.53;;;;;;;;;;5068487;28;20556;-45
2023/02/07 11:58:32;;;;;;;5.57;4.50;;;;;;;;;;5067261;28;20928;-47
2023/02/07 12:00:59;;;;;;;5.60;4.37;;;;;;;;;;5054460;28;20435;-47
2023/02/07 12:03:32;;;;;;;5.63;4.37;;;;;;;;;;5054191;28;20419;-48
2023/02/07 12:06:01;;;;;;;4.57;4.17;;;;;;;;;;5055901;28;20390;-47
2023/02/07 12:08:29;;;;;;;5.13;4.73;;;;;;;;;;5058809;28;20923;-47
2023/02/07 12:11:12;;;;;;;5.63;4.30;;;;;;;;;;5071560;28;20860;-45
2023/02/07 12:13:40;;;;;;;4.30;4.00;;;;;;;;;;5070255;28;20950;-43
2023/02/07 12:16:19;;;;;;;8.03;5.07;;;;;;;;;;5070403;28;20451;-45
2023/02/07 12:18:58;;;;;;;5.20;4.70;;;;;;;;;;5057835;28;20543;-46
2023/02/07 12:21:28;;;;;;;6.10;4.33;;;;;;;;;;5054143;28;20400;-48
2023/02/07 12:23:56;;;;;;;4.77;4.37;;;;;;;;;;5053215;28;20386;-47
2023/02/07 12:26:44;;;;;;;4.43;4.00;;;;;;;;;;5054266;28;20374;-46
2023/02/07 12:29:29;;;;;;;5.70;4.73;;;;;;;;;;5053662;28;20446;-45
2023/02/07 12:31:58;;;;;;;5.53;4.70;;;;;;;;;;5059136;28;20413;-47
2023/02/07 12:34:30;;;;;;;6.10;4.53;;;;;;;;;;5065177;28;20424;-46
2023/02/07 12:37:00;;;;;;;4.87;4.00;;;;;;;;;;5073603;28;20545;-48
2023/02/07 12:39:45;;;;;;;5.00;4.50;;;;;;;;;;5071094;28;20531;-48
2023/02/07 12:42:25;;;;;;;5.27;4.30;;;;;;;;;;5068584;28;21274;-46
2023/02/07 12:44:54;;;;;;;4.50;4.10;;;;;;;;;;5071325;28;20458;-47
2023/02/07 12:47:20;;;;;;;5.40;4.90;;;;;;;;;;5071845;28;20449;-48
2023/02/07 12:50:19;;;;;;;5.27;4.60;;;;;;;;;;5071654;28;20424;-47
2023/02/07 12:52:44;;;;;;;8.23;4.17;;;;;;;;;;5022917;28;20816;-46
2023/02/07 12:55:26;;;;;;;5.13;4.67;;;;;;;;;;5051100;28;20401;-45
2023/02/07 12:58:11;;;;;;;4.57;4.20;;;;;;;;;;5052033;28;20859;-45
2023/02/07 13:00:57;;;;;;;5.17;4.40;;;;;;;;;;5053076;28;20404;-45
2023/02/07 13:03:42;;;;;;;5.47;4.40;;;;;;;;;;5053027;28;20482;-46
2023/02/07 13:06:11;;;;;;;6.30;4.57;;;;;;;;;;5053099;28;20405;-47
2023/02/07 13:08:55;;;;;;;4.37;3.97;;;;;;;;;;5052678;28;20927;-44
2023/02/07 13:11:24;;;;;;;4.60;4.20;;;;;;;;;;5053011;28;20484;-45
2023/02/07 13:14:04;;;;;;;5.40;4.87;;;;;;;;;;5052170;28;20818;-48
2023/02/07 13:16:37;;;;;;;7.33;5.57;;;;;;;;;;5052752;28;20490;-49
2023/02/07 13:19:11;;;;;;;5.80;4.30;;;;;;;;;;5051633;28;20417;-47
2023/02/07 13:21:39;;;;;;;6.63;4.97;;;;;;;;;;5051322;28;20396;-46
2023/02/07 13:24:07;;;;;;;6.10;4.73;;;;;;;;;;5050231;28;20401;-46
2023/02/07 13:26:36;;;;;;;5.30;4.80;;;;;;;;;;5052236;28;20751;-45
2023/02/07 13:29:05;;;;;;;7.53;6.10;;;;;;;;;;5051458;28;20409;-46
2023/02/07 13:31:42;;;;;;;9.17;6.00;;;;;;;;;;5052590;28;20574;-45
2023/02/07 13:34:13;;;;;;;6.30;5.70;;;;;;;;;;5052127;28;20412;-48
2023/02/07 13:36:47;;;;;;;7.17;5.30;;;;;;;;;;5052530;28;20430;-47
2023/02/07 13:39:13;;;;;;;6.00;5.50;;;;;;;;;;5052356;28;20411;-44
2023/02/07 13:41:45;;;;;;;5.83;4.83;;;;;;;;;;5052730;28;20373;-48
2023/02/07 13:44:21;;;;;;;5.20;4.73;;;;;;;;;;5051894;28;20390;-46
2023/02/07 13:47:03;;;;;;;6.27;5.67;;;;;;;;;;5052633;28;20468;-48
2023/02/07 13:49:32;;;;;;;5.80;5.30;;;;;;;;;;5052319;28;20426;-48
2023/02/07 13:51:58;;;;;;;6.67;5.70;;;;;;;;;;5057688;28;20431;-47
2023/02/07 13:54:30;;;;;;;8.00;5.50;;;;;;;;;;5071445;28;20866;-48
2023/02/07 13:59:42;;;;;;;5.57;5.00;;;;;;;;;;5072043;28;20962;-48
2023/02/07 14:02:17;;;;;;;5.30;4.80;;;;;;;;;;5072180;28;20389;-47
2023/02/07 14:04:50;;;;;;;5.80;5.10;;;;;;;;;;5071290;28;20366;-46
2023/02/07 14:07:23;;;;;;;7.33;5.10;;;;;;;;;;5071990;28;20417;-46
2023/02/07 14:09:49;;;;;;;5.37;4.97;;;;;;;;;;5071743;28;20409;-48
2023/02/07 14:12:18;;;;;;;5.90;5.20;;;;;;;;;;5072068;28;20818;-48
2023/02/07 14:14:44;;;;;;;7.67;6.60;;;;;;;;;;5071083;28;20400;-47
2023/02/07 14:17:13;;;;;;;5.63;5.13;;;;;;;;;;5071581;28;20463;-47
2023/02/07 14:19:39;;;;;;;6.23;5.10;;;;;;;;;;5071869;28;20790;-48
2023/02/07 14:22:16;;;;;;;5.60;5.10;;;;;;;;;;5071981;28;20398;-48
2023/02/07 14:25:08;;;;;;;5.50;4.97;;;;;;;;;;5071311;28;20431;-48
2023/02/07 14:27:41;;;;;;;5.40;4.90;;;;;;;;;;5071416;28;20911;-45
2023/02/07 14:30:26;;;;;;;5.63;5.13;;;;;;;;;;5071757;28;20428;-48
2023/02/07 14:33:10;;;;;;;7.20;5.67;;;;;;;;;;5071939;28;20465;-48
2023/02/07 14:35:38;;;;;;;7.87;5.00;;;;;;;;;;5071078;28;20401;-46
2023/02/07 14:38:06;;;;;;;6.67;5.70;;;;;;;;;;5071341;28;20416;-48
2023/02/07 14:40:35;;;;;;;6.23;5.07;;;;;;;;;;5071606;28;20404;-45